sensor_id;sensor_type;location;lat;lon;timestamp;temperature;humidity
57709;SHT35;42558;52.388;13.390;2022-12-28T00:01:04;3.78;85.09
57709;SHT35;42558;52.388;13.390;2022-12-28T00:03:37;3.74;85.28
57709;SHT35;42558;52.388;13.390;2022-12-28T00:06:05;3.76;85.16
57709;SHT35;42558;52.388;13.390;2022-12-28T00:08:34;3.80;84.98
57709;SHT35;42558;52.388;13.390;2022-12-28T00:11:03;3.80;84.93
57709;SHT35;42558;52.388;13.390;2022-12-28T00:13:41;3.82;84.83
57709;SHT35;42558;52.388;13.390;2022-12-28T00:16:16;3.81;85.02
57709;SHT35;42558;52.388;13.390;2022-12-28T00:19:01;3.84;84.83
57709;SHT35;42558;52.388;13.390;2022-12-28T00:21:35;3.84;84.89
57709;SHT35;42558;52.388;13.390;2022-12-28T00:24:05;3.86;84.71
57709;SHT35;42558;52.388;13.390;2022-12-28T00:26:36;3.87;84.75
57709;SHT35;42558;52.388;13.390;2022-12-28T00:29:06;3.89;84.57
57709;SHT35;42558;52.388;13.390;2022-12-28T00:31:36;3.92;84.32
57709;SHT35;42558;52.388;13.390;2022-12-28T00:34:06;3.89;84.48
57709;SHT35;42558;52.388;13.390;2022-12-28T00:36:35;3.89;84.55
57709;SHT35;42558;52.388;13.390;2022-12-28T00:39:24;3.90;84.54
57709;SHT35;42558;52.388;13.390;2022-12-28T00:41:54;3.93;84.41
57709;SHT35;42558;52.388;13.390;2022-12-28T00:44:24;3.95;84.37
57709;SHT35;42558;52.388;13.390;2022-12-28T00:46:54;3.98;84.25
57709;SHT35;42558;52.388;13.390;2022-12-28T00:49:24;3.97;84.31
57709;SHT35;42558;52.388;13.390;2022-12-28T00:51:53;3.99;84.18
57709;SHT35;42558;52.388;13.390;2022-12-28T00:54:23;4.03;83.86
57709;SHT35;42558;52.388;13.390;2022-12-28T00:56:53;4.01;83.89
57709;SHT35;42558;52.388;13.390;2022-12-28T00:59:23;4.02;83.78
57709;SHT35;42558;52.388;13.390;2022-12-28T01:01:53;4.02;83.83
57709;SHT35;42558;52.388;13.390;2022-12-28T01:04:23;3.98;83.97
57709;SHT35;42558;52.388;13.390;2022-12-28T01:06:52;3.96;84.14
57709;SHT35;42558;52.388;13.390;2022-12-28T01:09:22;3.97;84.06
57709;SHT35;42558;52.388;13.390;2022-12-28T01:11:52;3.98;83.94
57709;SHT35;42558;52.388;13.390;2022-12-28T01:14:22;3.95;84.06
57709;SHT35;42558;52.388;13.390;2022-12-28T01:16:52;3.95;84.17
57709;SHT35;42558;52.388;13.390;2022-12-28T01:19:22;3.95;84.06
57709;SHT35;42558;52.388;13.390;2022-12-28T01:21:53;3.94;84.09
57709;SHT35;42558;52.388;13.390;2022-12-28T01:24:23;3.90;84.19
57709;SHT35;42558;52.388;13.390;2022-12-28T01:26:52;3.86;84.38
57709;SHT35;42558;52.388;13.390;2022-12-28T01:29:22;3.85;84.49
57709;SHT35;42558;52.388;13.390;2022-12-28T01:31:52;3.84;84.48
57709;SHT35;42558;52.388;13.390;2022-12-28T01:34:22;3.81;84.50
57709;SHT35;42558;52.388;13.390;2022-12-28T01:36:52;3.81;84.46
57709;SHT35;42558;52.388;13.390;2022-12-28T01:39:22;3.81;84.50
57709;SHT35;42558;52.388;13.390;2022-12-28T01:41:52;3.82;84.48
57709;SHT35;42558;52.388;13.390;2022-12-28T01:47:11;3.82;84.50
57709;SHT35;42558;52.388;13.390;2022-12-28T01:49:48;3.78;84.45
57709;SHT35;42558;52.388;13.390;2022-12-28T01:52:35;3.72;84.48
57709;SHT35;42558;52.388;13.390;2022-12-28T01:55:33;3.66;84.72
57709;SHT35;42558;52.388;13.390;2022-12-28T01:58:09;3.57;84.95
57709;SHT35;42558;52.388;13.390;2022-12-28T02:00:53;3.46;85.22
57709;SHT35;42558;52.388;13.390;2022-12-28T02:03:27;3.38;85.57
57709;SHT35;42558;52.388;13.390;2022-12-28T02:06:03;3.30;85.69
57709;SHT35;42558;52.388;13.390;2022-12-28T02:08:40;3.29;85.99
57709;SHT35;42558;52.388;13.390;2022-12-28T02:11:20;3.26;86.07
57709;SHT35;42558;52.388;13.390;2022-12-28T02:13:51;3.21;86.15
57709;SHT35;42558;52.388;13.390;2022-12-28T02:16:22;3.20;86.23
57709;SHT35;42558;52.388;13.390;2022-12-28T02:18:52;3.19;86.19
57709;SHT35;42558;52.388;13.390;2022-12-28T02:27:49;3.10;86.27
57709;SHT35;42558;52.388;13.390;2022-12-28T02:30:32;3.04;86.38
57709;SHT35;42558;52.388;13.390;2022-12-28T02:36:12;3.09;86.30
57709;SHT35;42558;52.388;13.390;2022-12-28T02:38:54;3.10;86.23
57709;SHT35;42558;52.388;13.390;2022-12-28T02:41:33;3.08;86.25
57709;SHT35;42558;52.388;13.390;2022-12-28T02:44:09;3.08;86.22
57709;SHT35;42558;52.388;13.390;2022-12-28T02:46:39;3.11;86.07
57709;SHT35;42558;52.388;13.390;2022-12-28T02:49:27;3.04;86.25
57709;SHT35;42558;52.388;13.390;2022-12-28T03:07:49;3.10;86.06
57709;SHT35;42558;52.388;13.390;2022-12-28T03:10:59;3.15;85.92
57709;SHT35;42558;52.388;13.390;2022-12-28T03:13:38;3.13;85.91
57709;SHT35;42558;52.388;13.390;2022-12-28T03:16:46;3.10;86.03
57709;SHT35;42558;52.388;13.390;2022-12-28T03:19:49;3.14;85.92
57709;SHT35;42558;52.388;13.390;2022-12-28T03:22:44;3.14;85.85
57709;SHT35;42558;52.388;13.390;2022-12-28T03:25:34;3.12;85.88
57709;SHT35;42558;52.388;13.390;2022-12-28T03:28:30;3.13;85.80
57709;SHT35;42558;52.388;13.390;2022-12-28T03:31:22;3.18;85.60
57709;SHT35;42558;52.388;13.390;2022-12-28T03:33:56;3.16;85.60
57709;SHT35;42558;52.388;13.390;2022-12-28T03:42:25;3.16;85.52
57709;SHT35;42558;52.388;13.390;2022-12-28T03:45:33;3.13;85.45
57709;SHT35;42558;52.388;13.390;2022-12-28T03:48:15;3.11;85.70
57709;SHT35;42558;52.388;13.390;2022-12-28T03:50:46;3.11;85.61
57709;SHT35;42558;52.388;13.390;2022-12-28T03:53:20;3.14;85.44
57709;SHT35;42558;52.388;13.390;2022-12-28T03:56:05;3.12;85.40
57709;SHT35;42558;52.388;13.390;2022-12-28T03:58:47;3.11;85.54
57709;SHT35;42558;52.388;13.390;2022-12-28T04:01:17;3.13;85.46
57709;SHT35;42558;52.388;13.390;2022-12-28T04:03:48;3.15;85.28
57709;SHT35;42558;52.388;13.390;2022-12-28T04:06:18;3.17;85.14
57709;SHT35;42558;52.388;13.390;2022-12-28T04:08:49;3.18;85.06
57709;SHT35;42558;52.388;13.390;2022-12-28T04:11:18;3.19;85.00
57709;SHT35;42558;52.388;13.390;2022-12-28T04:13:48;3.26;84.62
57709;SHT35;42558;52.388;13.390;2022-12-28T04:16:18;3.22;84.64
57709;SHT35;42558;52.388;13.390;2022-12-28T04:18:48;3.18;84.86
57709;SHT35;42558;52.388;13.390;2022-12-28T04:21:18;3.22;84.72
57709;SHT35;42558;52.388;13.390;2022-12-28T04:23:48;3.23;84.60
57709;SHT35;42558;52.388;13.390;2022-12-28T04:26:18;3.24;84.52
57709;SHT35;42558;52.388;13.390;2022-12-28T04:28:47;3.21;84.64
57709;SHT35;42558;52.388;13.390;2022-12-28T04:31:17;3.23;84.55
57709;SHT35;42558;52.388;13.390;2022-12-28T04:33:47;3.24;84.43
57709;SHT35;42558;52.388;13.390;2022-12-28T04:36:17;3.25;84.38
57709;SHT35;42558;52.388;13.390;2022-12-28T04:38:47;3.25;84.33
57709;SHT35;42558;52.388;13.390;2022-12-28T04:41:17;3.26;84.22
57709;SHT35;42558;52.388;13.390;2022-12-28T04:43:47;3.22;84.37
57709;SHT35;42558;52.388;13.390;2022-12-28T04:46:16;3.26;84.22
57709;SHT35;42558;52.388;13.390;2022-12-28T04:48:44;3.26;84.15
57709;SHT35;42558;52.388;13.390;2022-12-28T04:53:41;3.23;84.26
57709;SHT35;42558;52.388;13.390;2022-12-28T04:56:10;3.24;84.19
57709;SHT35;42558;52.388;13.390;2022-12-28T04:58:41;3.23;84.31
57709;SHT35;42558;52.388;13.390;2022-12-28T05:01:18;3.25;84.22
57709;SHT35;42558;52.388;13.390;2022-12-28T05:03:49;3.29;84.01
57709;SHT35;42558;52.388;13.390;2022-12-28T05:06:26;3.30;83.92
57709;SHT35;42558;52.388;13.390;2022-12-28T05:08:57;3.26;84.06
57709;SHT35;42558;52.388;13.390;2022-12-28T05:11:27;3.30;83.94
57709;SHT35;42558;52.388;13.390;2022-12-28T05:14:00;3.35;83.74
57709;SHT35;42558;52.388;13.390;2022-12-28T05:16:30;3.42;83.43
57709;SHT35;42558;52.388;13.390;2022-12-28T05:19:00;3.36;83.61
57709;SHT35;42558;52.388;13.390;2022-12-28T05:21:30;3.33;83.87
57709;SHT35;42558;52.388;13.390;2022-12-28T05:24:00;3.37;83.81
57709;SHT35;42558;52.388;13.390;2022-12-28T05:26:29;3.37;83.86
57709;SHT35;42558;52.388;13.390;2022-12-28T05:28:59;3.36;83.99
57709;SHT35;42558;52.388;13.390;2022-12-28T05:31:29;3.41;83.81
57709;SHT35;42558;52.388;13.390;2022-12-28T05:33:59;3.46;83.59
57709;SHT35;42558;52.388;13.390;2022-12-28T05:36:29;3.50;83.48
57709;SHT35;42558;52.388;13.390;2022-12-28T05:39:02;3.53;83.31
57709;SHT35;42558;52.388;13.390;2022-12-28T05:41:33;3.57;83.10
57709;SHT35;42558;52.388;13.390;2022-12-28T05:44:03;3.56;83.15
57709;SHT35;42558;52.388;13.390;2022-12-28T05:46:33;3.63;82.89
57709;SHT35;42558;52.388;13.390;2022-12-28T05:49:03;3.65;82.81
57709;SHT35;42558;52.388;13.390;2022-12-28T05:51:37;3.67;82.84
57709;SHT35;42558;52.388;13.390;2022-12-28T05:54:08;3.70;82.75
57709;SHT35;42558;52.388;13.390;2022-12-28T05:56:38;3.69;82.73
57709;SHT35;42558;52.388;13.390;2022-12-28T05:59:06;3.65;82.97
57709;SHT35;42558;52.388;13.390;2022-12-28T06:01:36;3.65;83.14
57709;SHT35;42558;52.388;13.390;2022-12-28T06:04:07;3.75;82.76
57709;SHT35;42558;52.388;13.390;2022-12-28T06:06:45;3.77;82.66
57709;SHT35;42558;52.388;13.390;2022-12-28T06:09:17;3.76;82.74
57709;SHT35;42558;52.388;13.390;2022-12-28T06:11:47;3.79;82.61
57709;SHT35;42558;52.388;13.390;2022-12-28T06:14:16;3.82;82.51
57709;SHT35;42558;52.388;13.390;2022-12-28T06:16:46;3.87;82.31
57709;SHT35;42558;52.388;13.390;2022-12-28T06:19:16;3.86;82.43
57709;SHT35;42558;52.388;13.390;2022-12-28T06:21:46;3.88;82.41
57709;SHT35;42558;52.388;13.390;2022-12-28T06:24:16;3.91;82.32
57709;SHT35;42558;52.388;13.390;2022-12-28T06:26:47;3.95;82.20
57709;SHT35;42558;52.388;13.390;2022-12-28T06:29:19;4.01;81.98
57709;SHT35;42558;52.388;13.390;2022-12-28T06:31:49;4.06;81.68
57709;SHT35;42558;52.388;13.390;2022-12-28T06:34:19;4.09;81.62
57709;SHT35;42558;52.388;13.390;2022-12-28T06:36:49;4.04;81.99
57709;SHT35;42558;52.388;13.390;2022-12-28T06:39:20;4.05;82.08
57709;SHT35;42558;52.388;13.390;2022-12-28T06:41:50;4.13;81.85
57709;SHT35;42558;52.388;13.390;2022-12-28T06:44:19;4.15;82.09
57709;SHT35;42558;52.388;13.390;2022-12-28T06:46:47;4.19;82.42
57709;SHT35;42558;52.388;13.390;2022-12-28T06:49:16;4.14;83.10
57709;SHT35;42558;52.388;13.390;2022-12-28T06:51:44;4.13;83.64
57709;SHT35;42558;52.388;13.390;2022-12-28T06:54:12;4.13;84.21
57709;SHT35;42558;52.388;13.390;2022-12-28T06:56:41;4.06;85.20
57709;SHT35;42558;52.388;13.390;2022-12-28T06:59:09;4.02;85.77
57709;SHT35;42558;52.388;13.390;2022-12-28T07:01:39;4.01;85.96
57709;SHT35;42558;52.388;13.390;2022-12-28T07:04:13;4.02;86.23
57709;SHT35;42558;52.388;13.390;2022-12-28T07:06:43;3.98;86.68
57709;SHT35;42558;52.388;13.390;2022-12-28T07:09:13;4.00;86.53
57709;SHT35;42558;52.388;13.390;2022-12-28T07:11:44;4.07;86.12
57709;SHT35;42558;52.388;13.390;2022-12-28T07:14:19;4.04;86.41
57709;SHT35;42558;52.388;13.390;2022-12-28T07:16:49;4.00;86.80
57709;SHT35;42558;52.388;13.390;2022-12-28T07:19:19;4.01;86.77
57709;SHT35;42558;52.388;13.390;2022-12-28T07:21:48;4.02;86.63
57709;SHT35;42558;52.388;13.390;2022-12-28T07:24:18;4.00;86.74
57709;SHT35;42558;52.388;13.390;2022-12-28T07:26:48;4.01;86.88
57709;SHT35;42558;52.388;13.390;2022-12-28T07:29:18;4.10;86.43
57709;SHT35;42558;52.388;13.390;2022-12-28T07:31:48;4.13;86.34
57709;SHT35;42558;52.388;13.390;2022-12-28T07:34:17;4.14;86.53
57709;SHT35;42558;52.388;13.390;2022-12-28T07:36:47;4.11;86.89
57709;SHT35;42558;52.388;13.390;2022-12-28T07:39:17;4.13;86.99
57709;SHT35;42558;52.388;13.390;2022-12-28T07:41:46;4.17;86.77
57709;SHT35;42558;52.388;13.390;2022-12-28T07:44:14;4.23;86.45
57709;SHT35;42558;52.388;13.390;2022-12-28T07:46:42;4.31;86.17
57709;SHT35;42558;52.388;13.390;2022-12-28T07:49:11;4.31;86.24
57709;SHT35;42558;52.388;13.390;2022-12-28T07:51:40;4.36;86.06
57709;SHT35;42558;52.388;13.390;2022-12-28T07:54:08;4.39;85.98
57709;SHT35;42558;52.388;13.390;2022-12-28T07:56:36;4.39;86.18
57709;SHT35;42558;52.388;13.390;2022-12-28T07:59:05;4.39;86.48
57709;SHT35;42558;52.388;13.390;2022-12-28T08:01:34;4.38;86.68
57709;SHT35;42558;52.388;13.390;2022-12-28T08:04:06;4.38;86.89
57709;SHT35;42558;52.388;13.390;2022-12-28T08:06:41;4.44;86.70
57709;SHT35;42558;52.388;13.390;2022-12-28T08:09:13;4.54;86.30
57709;SHT35;42558;52.388;13.390;2022-12-28T08:11:44;4.55;86.38
57709;SHT35;42558;52.388;13.390;2022-12-28T08:14:17;4.61;86.03
57709;SHT35;42558;52.388;13.390;2022-12-28T08:16:46;4.61;86.29
57709;SHT35;42558;52.388;13.390;2022-12-28T08:19:16;4.61;86.47
57709;SHT35;42558;52.388;13.390;2022-12-28T08:21:46;4.61;86.66
57709;SHT35;42558;52.388;13.390;2022-12-28T08:24:17;4.60;86.92
57709;SHT35;42558;52.388;13.390;2022-12-28T08:26:48;4.62;86.98
57709;SHT35;42558;52.388;13.390;2022-12-28T08:29:19;4.64;87.17
57709;SHT35;42558;52.388;13.390;2022-12-28T08:31:50;4.70;87.26
57709;SHT35;42558;52.388;13.390;2022-12-28T08:34:20;4.76;86.68
57709;SHT35;42558;52.388;13.390;2022-12-28T08:36:55;4.81;86.41
57709;SHT35;42558;52.388;13.390;2022-12-28T08:39:25;4.83;86.31
57709;SHT35;42558;52.388;13.390;2022-12-28T08:41:54;4.95;85.29
57709;SHT35;42558;52.388;13.390;2022-12-28T08:44:25;4.99;85.49
57709;SHT35;42558;52.388;13.390;2022-12-28T08:46:55;5.03;85.21
57709;SHT35;42558;52.388;13.390;2022-12-28T08:49:25;5.07;85.25
57709;SHT35;42558;52.388;13.390;2022-12-28T08:51:55;5.18;84.43
57709;SHT35;42558;52.388;13.390;2022-12-28T08:54:25;5.28;83.76
57709;SHT35;42558;52.388;13.390;2022-12-28T08:56:55;5.32;84.08
57709;SHT35;42558;52.388;13.390;2022-12-28T08:59:25;5.33;83.83
57709;SHT35;42558;52.388;13.390;2022-12-28T09:01:55;5.36;83.40
57709;SHT35;42558;52.388;13.390;2022-12-28T09:04:25;5.38;83.37
57709;SHT35;42558;52.388;13.390;2022-12-28T09:06:55;5.41;83.38
57709;SHT35;42558;52.388;13.390;2022-12-28T09:09:25;5.49;83.29
57709;SHT35;42558;52.388;13.390;2022-12-28T09:11:55;5.58;82.63
57709;SHT35;42558;52.388;13.390;2022-12-28T09:14:25;5.66;82.02
57709;SHT35;42558;52.388;13.390;2022-12-28T09:16:55;5.66;82.35
57709;SHT35;42558;52.388;13.390;2022-12-28T09:19:25;5.66;82.60
57709;SHT35;42558;52.388;13.390;2022-12-28T09:21:53;5.65;82.98
57709;SHT35;42558;52.388;13.390;2022-12-28T09:24:21;5.66;83.17
57709;SHT35;42558;52.388;13.390;2022-12-28T09:26:50;5.64;83.35
57709;SHT35;42558;52.388;13.390;2022-12-28T09:29:18;5.62;83.41
57709;SHT35;42558;52.388;13.390;2022-12-28T09:31:47;5.60;83.97
57709;SHT35;42558;52.388;13.390;2022-12-28T09:34:15;5.56;84.74
57709;SHT35;42558;52.388;13.390;2022-12-28T09:37:05;5.48;85.34
57709;SHT35;42558;52.388;13.390;2022-12-28T09:39:36;5.46;85.90
57709;SHT35;42558;52.388;13.390;2022-12-28T09:42:20;5.45;86.25
57709;SHT35;42558;52.388;13.390;2022-12-28T09:44:58;5.46;86.24
57709;SHT35;42558;52.388;13.390;2022-12-28T09:47:48;5.46;86.24
57709;SHT35;42558;52.388;13.390;2022-12-28T09:50:24;5.52;86.18
57709;SHT35;42558;52.388;13.390;2022-12-28T09:56:15;5.57;85.47
57709;SHT35;42558;52.388;13.390;2022-12-28T09:59:13;5.64;85.23
57709;SHT35;42558;52.388;13.390;2022-12-28T10:01:56;5.67;85.42
57709;SHT35;42558;52.388;13.390;2022-12-28T10:04:31;5.68;85.22
57709;SHT35;42558;52.388;13.390;2022-12-28T10:07:01;5.73;84.75
57709;SHT35;42558;52.388;13.390;2022-12-28T10:09:30;5.80;84.31
57709;SHT35;42558;52.388;13.390;2022-12-28T10:12:11;5.83;84.38
57709;SHT35;42558;52.388;13.390;2022-12-28T10:14:47;5.89;84.31
57709;SHT35;42558;52.388;13.390;2022-12-28T10:17:16;5.94;84.13
57709;SHT35;42558;52.388;13.390;2022-12-28T10:19:57;6.02;83.76
57709;SHT35;42558;52.388;13.390;2022-12-28T10:22:26;6.09;83.74
57709;SHT35;42558;52.388;13.390;2022-12-28T10:25:14;6.14;83.84
57709;SHT35;42558;52.388;13.390;2022-12-28T10:27:45;6.21;83.84
57709;SHT35;42558;52.388;13.390;2022-12-28T10:30:16;6.25;83.90
57709;SHT35;42558;52.388;13.390;2022-12-28T10:32:53;6.32;83.89
57709;SHT35;42558;52.388;13.390;2022-12-28T10:35:39;6.36;84.28
57709;SHT35;42558;52.388;13.390;2022-12-28T10:43:32;6.40;84.79
57709;SHT35;42558;52.388;13.390;2022-12-28T10:46:06;6.43;85.23
57709;SHT35;42558;52.388;13.390;2022-12-28T10:48:52;6.44;85.50
57709;SHT35;42558;52.388;13.390;2022-12-28T10:51:26;6.41;85.52
57709;SHT35;42558;52.388;13.390;2022-12-28T10:53:58;6.43;85.69
57709;SHT35;42558;52.388;13.390;2022-12-28T10:56:32;6.44;86.01
57709;SHT35;42558;52.388;13.390;2022-12-28T10:59:22;6.48;85.70
57709;SHT35;42558;52.388;13.390;2022-12-28T11:05:04;6.58;84.67
57709;SHT35;42558;52.388;13.390;2022-12-28T11:07:36;6.67;84.43
57709;SHT35;42558;52.388;13.390;2022-12-28T11:10:23;6.74;84.29
57709;SHT35;42558;52.388;13.390;2022-12-28T11:12:57;6.82;84.00
57709;SHT35;42558;52.388;13.390;2022-12-28T11:15:30;6.93;83.49
57709;SHT35;42558;52.388;13.390;2022-12-28T11:18:12;7.04;82.90
57709;SHT35;42558;52.388;13.390;2022-12-28T11:20:49;7.15;82.67
57709;SHT35;42558;52.388;13.390;2022-12-28T11:23:23;7.20;82.54
57709;SHT35;42558;52.388;13.390;2022-12-28T11:25:59;7.23;82.09
57709;SHT35;42558;52.388;13.390;2022-12-28T11:28:29;7.27;82.03
57709;SHT35;42558;52.388;13.390;2022-12-28T11:31:00;7.26;82.27
57709;SHT35;42558;52.388;13.390;2022-12-28T11:33:43;7.28;82.18
57709;SHT35;42558;52.388;13.390;2022-12-28T11:36:22;7.35;81.86
57709;SHT35;42558;52.388;13.390;2022-12-28T11:38:54;7.46;81.21
57709;SHT35;42558;52.388;13.390;2022-12-28T11:44:02;7.53;81.21
57709;SHT35;42558;52.388;13.390;2022-12-28T11:54:50;7.54;81.28
57709;SHT35;42558;52.388;13.390;2022-12-28T11:57:40;7.55;81.35
57709;SHT35;42558;52.388;13.390;2022-12-28T12:02:52;7.52;81.68
57709;SHT35;42558;52.388;13.390;2022-12-28T12:10:45;7.58;81.51
57709;SHT35;42558;52.388;13.390;2022-12-28T12:15:59;7.80;81.08
57709;SHT35;42558;52.388;13.390;2022-12-28T12:18:38;7.89;80.49
57709;SHT35;42558;52.388;13.390;2022-12-28T12:21:34;7.95;80.22
57709;SHT35;42558;52.388;13.390;2022-12-28T12:27:03;8.10;80.08
57709;SHT35;42558;52.388;13.390;2022-12-28T12:29:49;8.20;79.69
57709;SHT35;42558;52.388;13.390;2022-12-28T12:32:38;8.28;79.67
57709;SHT35;42558;52.388;13.390;2022-12-28T12:35:21;8.21;79.28
57709;SHT35;42558;52.388;13.390;2022-12-28T12:37:59;8.16;79.42
57709;SHT35;42558;52.388;13.390;2022-12-28T12:40:56;8.11;79.87
57709;SHT35;42558;52.388;13.390;2022-12-28T12:52:54;8.35;79.46
57709;SHT35;42558;52.388;13.390;2022-12-28T12:58:54;8.30;79.56
57709;SHT35;42558;52.388;13.390;2022-12-28T13:02:11;8.28;79.47
57709;SHT35;42558;52.388;13.390;2022-12-28T13:05:02;8.34;79.47
57709;SHT35;42558;52.388;13.390;2022-12-28T13:07:34;8.33;79.62
57709;SHT35;42558;52.388;13.390;2022-12-28T13:10:02;8.36;79.47
57709;SHT35;42558;52.388;13.390;2022-12-28T13:12:33;8.35;79.41
57709;SHT35;42558;52.388;13.390;2022-12-28T13:15:04;8.32;79.65
57709;SHT35;42558;52.388;13.390;2022-12-28T13:17:57;8.29;79.42
57709;SHT35;42558;52.388;13.390;2022-12-28T13:21:06;8.21;79.72
57709;SHT35;42558;52.388;13.390;2022-12-28T13:23:42;8.14;80.16
57709;SHT35;42558;52.388;13.390;2022-12-28T13:26:13;8.14;80.00
57709;SHT35;42558;52.388;13.390;2022-12-28T13:28:48;8.11;80.16
57709;SHT35;42558;52.388;13.390;2022-12-28T13:31:28;8.08;80.30
57709;SHT35;42558;52.388;13.390;2022-12-28T13:34:15;8.15;80.17
57709;SHT35;42558;52.388;13.390;2022-12-28T13:36:56;8.15;80.17
57709;SHT35;42558;52.388;13.390;2022-12-28T13:39:32;8.16;80.10
57709;SHT35;42558;52.388;13.390;2022-12-28T13:42:12;8.17;80.16
57709;SHT35;42558;52.388;13.390;2022-12-28T13:47:36;8.17;80.09
57709;SHT35;42558;52.388;13.390;2022-12-28T13:50:14;8.25;79.89
57709;SHT35;42558;52.388;13.390;2022-12-28T13:52:50;8.24;79.98
57709;SHT35;42558;52.388;13.390;2022-12-28T13:55:41;8.22;80.08
57709;SHT35;42558;52.388;13.390;2022-12-28T14:01:16;8.22;80.07
57709;SHT35;42558;52.388;13.390;2022-12-28T14:03:56;8.16;80.30
57709;SHT35;42558;52.388;13.390;2022-12-28T14:06:51;8.12;80.47
57709;SHT35;42558;52.388;13.390;2022-12-28T14:09:21;8.09;80.46
57709;SHT35;42558;52.388;13.390;2022-12-28T14:11:52;8.07;80.52
57709;SHT35;42558;52.388;13.390;2022-12-28T14:14:23;7.99;80.81
57709;SHT35;42558;52.388;13.390;2022-12-28T14:16:53;7.89;81.22
57709;SHT35;42558;52.388;13.390;2022-12-28T14:19:23;7.82;81.51
57709;SHT35;42558;52.388;13.390;2022-12-28T14:21:54;7.87;81.32
57709;SHT35;42558;52.388;13.390;2022-12-28T14:24:23;7.90;81.08
57709;SHT35;42558;52.388;13.390;2022-12-28T14:26:56;7.88;81.14
57709;SHT35;42558;52.388;13.390;2022-12-28T14:29:30;7.84;81.27
57709;SHT35;42558;52.388;13.390;2022-12-28T14:32:03;7.73;81.54
57709;SHT35;42558;52.388;13.390;2022-12-28T14:34:42;7.68;81.86
57709;SHT35;42558;52.388;13.390;2022-12-28T14:37:23;7.56;82.23
57709;SHT35;42558;52.388;13.390;2022-12-28T14:40:10;7.58;82.28
57709;SHT35;42558;52.388;13.390;2022-12-28T14:43:12;7.56;82.46
57709;SHT35;42558;52.388;13.390;2022-12-28T14:45:50;7.58;82.37
57709;SHT35;42558;52.388;13.390;2022-12-28T14:48:37;7.53;82.78
57709;SHT35;42558;52.388;13.390;2022-12-28T14:54:02;7.61;82.77
57709;SHT35;42558;52.388;13.390;2022-12-28T14:56:42;7.66;82.60
57709;SHT35;42558;52.388;13.390;2022-12-28T14:59:22;7.69;82.43
57709;SHT35;42558;52.388;13.390;2022-12-28T15:02:02;7.66;82.49
57709;SHT35;42558;52.388;13.390;2022-12-28T15:04:35;7.64;82.53
57709;SHT35;42558;52.388;13.390;2022-12-28T15:07:08;7.56;82.80
57709;SHT35;42558;52.388;13.390;2022-12-28T15:09:40;7.51;82.94
57709;SHT35;42558;52.388;13.390;2022-12-28T15:12:12;7.49;82.95
57709;SHT35;42558;52.388;13.390;2022-12-28T15:14:51;7.44;83.19
57709;SHT35;42558;52.388;13.390;2022-12-28T15:17:21;7.42;83.16
57709;SHT35;42558;52.388;13.390;2022-12-28T15:19:57;7.44;83.10
57709;SHT35;42558;52.388;13.390;2022-12-28T15:22:27;7.47;83.09
57709;SHT35;42558;52.388;13.390;2022-12-28T15:24:57;7.51;82.87
57709;SHT35;42558;52.388;13.390;2022-12-28T15:27:27;7.51;82.94
57709;SHT35;42558;52.388;13.390;2022-12-28T15:29:57;7.61;82.52
57709;SHT35;42558;52.388;13.390;2022-12-28T15:32:37;7.66;82.12
57709;SHT35;42558;52.388;13.390;2022-12-28T15:35:07;7.67;82.01
57709;SHT35;42558;52.388;13.390;2022-12-28T15:37:38;7.71;81.70
57709;SHT35;42558;52.388;13.390;2022-12-28T15:40:08;7.75;81.52
57709;SHT35;42558;52.388;13.390;2022-12-28T15:42:36;7.72;81.62
57709;SHT35;42558;52.388;13.390;2022-12-28T15:45:07;7.74;81.49
57709;SHT35;42558;52.388;13.390;2022-12-28T15:47:36;7.76;81.36
57709;SHT35;42558;52.388;13.390;2022-12-28T15:50:04;7.81;81.06
57709;SHT35;42558;52.388;13.390;2022-12-28T15:52:33;7.87;80.71
57709;SHT35;42558;52.388;13.390;2022-12-28T15:55:01;7.91;80.44
57709;SHT35;42558;52.388;13.390;2022-12-28T15:57:29;7.85;80.75
57709;SHT35;42558;52.388;13.390;2022-12-28T15:59:58;7.88;80.54
57709;SHT35;42558;52.388;13.390;2022-12-28T16:02:26;7.97;80.04
57709;SHT35;42558;52.388;13.390;2022-12-28T16:04:55;7.93;80.14
57709;SHT35;42558;52.388;13.390;2022-12-28T16:07:23;7.88;80.25
57709;SHT35;42558;52.388;13.390;2022-12-28T16:09:52;7.79;80.48
57709;SHT35;42558;52.388;13.390;2022-12-28T16:12:20;7.79;80.40
57709;SHT35;42558;52.388;13.390;2022-12-28T16:14:48;7.91;79.84
57709;SHT35;42558;52.388;13.390;2022-12-28T16:17:17;7.87;79.94
57709;SHT35;42558;52.388;13.390;2022-12-28T16:19:45;7.82;80.26
57709;SHT35;42558;52.388;13.390;2022-12-28T16:22:14;7.81;80.27
57709;SHT35;42558;52.388;13.390;2022-12-28T16:24:42;7.78;80.48
57709;SHT35;42558;52.388;13.390;2022-12-28T16:27:10;7.74;80.75
57709;SHT35;42558;52.388;13.390;2022-12-28T16:29:39;7.71;81.05
57709;SHT35;42558;52.388;13.390;2022-12-28T16:32:07;7.74;81.01
57709;SHT35;42558;52.388;13.390;2022-12-28T16:34:36;7.78;80.87
57709;SHT35;42558;52.388;13.390;2022-12-28T16:37:04;7.86;80.53
57709;SHT35;42558;52.388;13.390;2022-12-28T16:39:34;7.89;80.43
57709;SHT35;42558;52.388;13.390;2022-12-28T16:42:06;7.86;80.49
57709;SHT35;42558;52.388;13.390;2022-12-28T16:44:42;7.89;80.36
57709;SHT35;42558;52.388;13.390;2022-12-28T16:47:12;7.91;80.21
57709;SHT35;42558;52.388;13.390;2022-12-28T16:49:42;7.90;80.29
57709;SHT35;42558;52.388;13.390;2022-12-28T16:52:11;7.89;80.39
57709;SHT35;42558;52.388;13.390;2022-12-28T16:54:41;7.92;80.31
57709;SHT35;42558;52.388;13.390;2022-12-28T16:57:11;7.93;80.31
57709;SHT35;42558;52.388;13.390;2022-12-28T16:59:41;7.95;80.13
57709;SHT35;42558;52.388;13.390;2022-12-28T17:02:11;7.93;80.35
57709;SHT35;42558;52.388;13.390;2022-12-28T17:04:42;7.96;80.21
57709;SHT35;42558;52.388;13.390;2022-12-28T17:07:12;7.95;80.26
57709;SHT35;42558;52.388;13.390;2022-12-28T17:09:40;7.99;79.94
57709;SHT35;42558;52.388;13.390;2022-12-28T17:12:18;7.92;80.81
57709;SHT35;42558;52.388;13.390;2022-12-28T17:14:48;7.87;81.59
57709;SHT35;42558;52.388;13.390;2022-12-28T17:17:18;7.77;82.49
57709;SHT35;42558;52.388;13.390;2022-12-28T17:19:48;7.69;83.08
57709;SHT35;42558;52.388;13.390;2022-12-28T17:22:18;7.66;83.24
57709;SHT35;42558;52.388;13.390;2022-12-28T17:24:48;7.66;83.47
57709;SHT35;42558;52.388;13.390;2022-12-28T17:27:18;7.65;83.61
57709;SHT35;42558;52.388;13.390;2022-12-28T17:29:48;7.63;83.63
57709;SHT35;42558;52.388;13.390;2022-12-28T17:32:17;7.66;83.25
57709;SHT35;42558;52.388;13.390;2022-12-28T17:34:47;7.66;83.09
57709;SHT35;42558;52.388;13.390;2022-12-28T17:37:17;7.73;82.65
57709;SHT35;42558;52.388;13.390;2022-12-28T17:39:47;7.75;82.43
57709;SHT35;42558;52.388;13.390;2022-12-28T17:42:17;7.75;82.50
57709;SHT35;42558;52.388;13.390;2022-12-28T17:44:47;7.78;82.23